Tuesday, September 2, 2014, 10:03 PM EDT

KSEG, Selinsgrove Penn Valley Airport

Location: Selinsgrove, PA, United States Lat: 40.817
Local Time: 10:03 PM EDT ( 2:03 GMT) Lon: -76.867
Time Zone: US/Eastern Elev: 449 ft

Show me the last for .
Show Decoded

2014-09-02 20:53 METAR KSEG 030053Z AUTO 00000KT 10SM BKN090 23/21 A2989 RMK AO2 RAE43 SLP118
                 P0005 T02280211 =
2014-09-02 20:11 METAR KSEG 030011Z AUTO 00000KT 6SM -RA BR FEW020 SCT047 BKN100 23/21 A2985 RMK
                 AO2 LTG DSNT NE P0005 T02330211 =
2014-09-02 20:03 METAR KSEG 030003Z AUTO 30004KT 2 1/2SM RA BR FEW014 SCT030 BKN055 23/22 A2985
                 RMK AO2 VIS 1 1/4V5 LTG DSNT NE P0004 T02330222 =
2014-09-02 19:53 METAR KSEG 022353Z AUTO 31009KT 5SM -RA BR FEW014 FEW050 SCT120 23/22 A2985 RMK
                 AO2 RAE10B53 TSE2259B03E18 SLP104 P0003 60026 T02330217 10311 20233 53006 =
2014-09-02 19:18 METAR KSEG 022318Z AUTO 00000KT 6SM BR SCT027 SCT040 BKN050 24/22 A2984 RMK AO2
                 LTG DSNT NE AND E RAE10 TSE2259B03E18 P0000 T02390222 =
2014-09-02 19:08 METAR KSEG 022308Z AUTO 00000KT 5SM -TSRA BR FEW022 BKN027 OVC050 24/22 A2984
                 RMK AO2 LTG DSNT N-E TSE2259B03 P0000 T02390222 =
2014-09-02 18:59 METAR KSEG 022259Z AUTO 30006KT 5SM VCTS -RA BR SCT027 BKN040 OVC070 24/23 A2984
                 RMK AO2 LTG DSNT N AND NE TSE59 P0000 T02440228 =
2014-09-02 18:53 METAR KSEG 022253Z AUTO VRB03KT 3SM -TSRA BR BKN029 BKN046 OVC085 24/23 A2984
                 RMK AO2 LTG DSNT N AND NE AND S RAB22 TSB23E38B44 SLP100 P0023 T02440228 =
2014-09-02 18:50 METAR KSEG 022250Z AUTO 29006KT 1SM -TSRA BR BKN029 BKN046 OVC090 24/23 A2984
                 RMK AO2 LTG DSNT ALQDS RAB22 TSB23E38B44 P0022 =
2014-09-02 18:44 METAR KSEG 022244Z AUTO 30006KT 3/4SM +TSRA BR SCT031 BKN070 OVC120 24/23 A2983
                 RMK AO2 LTG DSNT ALQDS RAB22 TSB23E38B44 P0022 T02390228 =
2014-09-02 18:41 METAR KSEG 022241Z AUTO 24004KT 1SM VCTS +RA BR SCT034 BKN070 BKN090 24/22 A2983
                 RMK AO2 LTG DSNT ALQDS RAB22 TSB23E38 PRESRR P0017 T02440222 =
2014-09-02 18:37 METAR KSEG 022237Z AUTO VRB03KT 1 3/4SM +TSRA FEW050 SCT070 BKN090 26/22 A2982
                 RMK AO2 VIS 1 1/4V2 1/2 LTG DSNT ALQDS RAB22 TSB23 P0006 T02560222 =
2014-09-02 18:29 METAR KSEG 022229Z AUTO VRB05KT 4SM -TSRA FEW047 FEW100 BKN120 28/21 A2981 RMK
                 AO2 LTG DSNT ALQDS RAB22 TSB23 P0002 T02780211 =
2014-09-02 18:13 METAR KSEG 022213Z AUTO 16005KT 10SM VCTS FEW070 FEW100 28/21 A2980 RMK AO2 LTG
                 DSNT S-W T02830211 =
2014-09-02 17:53 METAR KSEG 022153Z AUTO 19004KT 10SM BKN070 29/21 A2981 RMK AO2 LTG DSNT SW AND
                 W SLP090 T02940211 =
2014-09-02 16:53 METAR KSEG 022053Z AUTO VRB04KT 10SM FEW055 30/21 A2983 RMK AO2 SLP097 T03000206
                 56027 =
2014-09-02 15:53 METAR KSEG 021953Z AUTO VRB03KT 10SM FEW049 FEW075 31/21 A2985 RMK AO2 SLP104
                 T03060206 =
2014-09-02 14:53 METAR KSEG 021853Z AUTO 24004KT 10SM SCT049 31/20 A2988 RMK AO2 SLP116 T03060200
                 =
2014-09-02 13:53 METAR KSEG 021753Z AUTO VRB03KT 10SM FEW046 SCT065 SCT080 31/21 A2991 RMK AO2
                 SLP125 T03060211 10306 20222 56019 =
2014-09-02 12:53 METAR KSEG 021653Z AUTO 21005KT 10SM BKN037 BKN045 29/21 A2992 RMK AO2 SLP128
                 T02890211 =
2014-09-02 11:53 METAR KSEG 021553Z AUTO VRB05KT 10SM FEW042 SCT049 28/22 A2995 RMK AO2 SLP139
                 T02780217 =
2014-09-02 10:53 METAR KSEG 021453Z AUTO VRB05KT 10SM CLR 28/22 A2997 RMK AO2 SLP144 T02830222
                 52002 =
2014-09-02 09:53 METAR KSEG 021353Z AUTO VRB03KT 10SM BKN039 BKN048 26/22 A2997 RMK AO2 SLP143
                 T02610222 =
2014-09-02 08:53 METAR KSEG 021253Z AUTO 00000KT 8SM FEW029 SCT034 OVC044 24/22 A2996 RMK AO2
                 SLP142 T02390217 =
2014-09-02 07:53 METAR KSEG 021153Z AUTO 00000KT 5SM BR CLR 22/21 A2996 RMK AO2 SLP141 70002
                 T02220211 10222 20189 53013 =
2014-09-02 07:20 METAR KSEG 021120Z AUTO 00000KT 3SM BR FEW100 20/19 A2996 RMK AO2 T02000194 =
2014-09-02 07:00 METAR KSEG 021100Z AUTO 00000KT 2 1/2SM BR FEW031 19/19 A2996 RMK AO2 T01940189
                 =
2014-09-02 06:53 METAR KSEG 021053Z AUTO 00000KT 3SM BR SCT031 19/19 A2995 RMK AO2 SLP137
                 T01940189 =
2014-09-02 06:22 METAR KSEG 021022Z AUTO 00000KT 4SM BR FEW002 OVC031 19/19 A2994 RMK AO2
                 T01940189 =
2014-09-02 06:15 METAR KSEG 021015Z AUTO 00000KT 2 1/2SM BR SCT002 OVC031 19/19 A2993 RMK AO2
                 T01940189 =
2014-09-02 06:10 METAR KSEG 021010Z AUTO 00000KT 1SM BR SCT002 BKN031 19/18 A2993 RMK AO2
                 T01940183 =
2014-09-02 05:53 METAR KSEG 020953Z AUTO 00000KT 3/4SM BR VV003 19/18 A2992 RMK AO2 SLP129
                 T01890183 =
2014-09-02 05:42 METAR KSEG 020942Z AUTO 00000KT 1/2SM FG VV003 19/18 A2992 RMK AO2 T01890183 =
2014-09-02 05:33 METAR KSEG 020933Z AUTO 00000KT 1SM BR VV002 19/18 A2992 RMK AO2 T01890183 =
2014-09-02 05:29 METAR KSEG 020929Z AUTO 00000KT 2SM BR OVC002 19/18 A2992 RMK AO2 VIS 1V4
                 T01890183 =
2014-09-02 05:11 METAR KSEG 020911Z AUTO 00000KT 1 1/2SM BR BKN002 19/18 A2992 RMK AO2 T01940183
                 =
2014-09-02 05:05 METAR KSEG 020905Z AUTO 00000KT 2SM BR FEW002 19/18 A2992 RMK AO2 T01940183 =
2014-09-02 04:58 METAR KSEG 020858Z AUTO 00000KT 1 3/4SM BR CLR 19/18 A2992 RMK AO2 T01940183 =
2014-09-02 04:53 METAR KSEG 020853Z AUTO 00000KT 3SM BR CLR 19/18 A2992 RMK AO2 SLP129 T01940183
                 58002 =
2014-09-02 04:34 METAR KSEG 020834Z AUTO 00000KT 3SM BR CLR 19/19 A2992 RMK AO2 T01940189 =
2014-09-02 04:24 METAR KSEG 020824Z AUTO 00000KT 2 1/2SM BR CLR 21/19 A2993 RMK AO2 T02110189 =
2014-09-02 04:16 METAR KSEG 020816Z AUTO 00000KT 1 1/4SM BR CLR 19/19 A2993 RMK AO2 T01940189 =
2014-09-02 04:06 METAR KSEG 020806Z AUTO 00000KT 3/4SM BR CLR 19/19 A2993 RMK AO2 VIS 1/2V1 3/4
                 T01940189 =
2014-09-02 03:59 METAR KSEG 020759Z AUTO 00000KT 1 3/4SM BR CLR 20/19 A2993 RMK AO2 T02000189 =
2014-09-02 03:53 METAR KSEG 020753Z AUTO 00000KT 3SM BR CLR 20/19 A2993 RMK AO2 SLP132 T02000189
                 =
2014-09-02 02:44 METAR KSEG 020644Z AUTO 00000KT 1SM BR CLR 20/19 A2993 RMK AO2 T02000189 =
2014-09-02 02:35 METAR KSEG 020635Z AUTO 00000KT 1 3/4SM BR CLR 20/19 A2993 RMK AO2 VIS 3/4V5
                 T02000194 =
2014-09-02 02:24 METAR KSEG 020624Z AUTO 00000KT 4SM BR CLR 21/19 A2993 RMK AO2 T02060194 =
2014-09-02 02:14 METAR KSEG 020614Z AUTO 00000KT 2 1/2SM BR CLR 21/19 A2993 RMK AO2 VIS 1 1/4V4
                 T02060194 =
2014-09-02 01:53 METAR KSEG 020553Z AUTO 00000KT 4SM BR CLR 21/20 A2993 RMK AO2 SLP132 60002
                 T02110200 10233 20206 58008 =
2014-09-02 00:53 METAR KSEG 020453Z AUTO 00000KT 5SM BR CLR 22/21 A2994 RMK AO2 SLP135 T02170206
                 403000194 =
2014-09-01 23:53 METAR KSEG 020353Z AUTO 00000KT 3SM BR FEW095 21/21 A2996 RMK AO2 SLP141
                 T02110206 =
2014-09-01 23:43 METAR KSEG 020343Z AUTO 00000KT 3SM BR FEW002 21/20 A2996 RMK AO2 T02110200 =
2014-09-01 23:20 METAR KSEG 020320Z AUTO 00000KT 1 3/4SM BR FEW002 22/21 A2996 RMK AO2 VIS 1/2V5
                 T02170206 =
2014-09-01 22:53 METAR KSEG 020253Z AUTO 00000KT 4SM BR FEW090 22/21 A2996 RMK AO2 RAB0157E08
                 SLP140 P0002 60002 T02220211 50006 =

Support USWX by starting your Amazon purchase here.